sensor_id;sensor_type;location;lat;lon;timestamp;P1;durP1;ratioP1;P2;durP2;ratioP2
47433;SDS011;33184;48.774;8.918;2023-03-02T00:03:49;30.63;;;18.03;;
47433;SDS011;33184;48.774;8.918;2023-03-02T00:09:10;28.70;;;16.97;;
47433;SDS011;33184;48.774;8.918;2023-03-02T00:14:31;33.13;;;16.47;;
47433;SDS011;33184;48.774;8.918;2023-03-02T00:19:52;28.77;;;16.77;;
47433;SDS011;33184;48.774;8.918;2023-03-02T00:25:13;29.57;;;17.20;;
47433;SDS011;33184;48.774;8.918;2023-03-02T00:30:36;30.87;;;17.63;;
47433;SDS011;33184;48.774;8.918;2023-03-02T00:35:57;33.13;;;17.93;;
47433;SDS011;33184;48.774;8.918;2023-03-02T00:41:18;30.67;;;18.00;;
47433;SDS011;33184;48.774;8.918;2023-03-02T00:46:40;32.77;;;19.23;;
47433;SDS011;33184;48.774;8.918;2023-03-02T00:52:02;32.40;;;18.50;;
47433;SDS011;33184;48.774;8.918;2023-03-02T00:57:23;25.00;;;16.03;;
47433;SDS011;33184;48.774;8.918;2023-03-02T01:02:44;29.93;;;17.63;;
47433;SDS011;33184;48.774;8.918;2023-03-02T01:08:08;29.80;;;17.90;;
47433;SDS011;33184;48.774;8.918;2023-03-02T01:13:29;34.33;;;18.10;;
47433;SDS011;33184;48.774;8.918;2023-03-02T01:18:49;31.53;;;17.33;;
47433;SDS011;33184;48.774;8.918;2023-03-02T01:24:10;34.20;;;18.00;;
47433;SDS011;33184;48.774;8.918;2023-03-02T01:29:31;29.33;;;17.73;;
47433;SDS011;33184;48.774;8.918;2023-03-02T01:34:53;33.43;;;16.27;;
47433;SDS011;33184;48.774;8.918;2023-03-02T01:40:13;37.57;;;19.77;;
47433;SDS011;33184;48.774;8.918;2023-03-02T01:45:45;32.00;;;19.90;;
47433;SDS011;33184;48.774;8.918;2023-03-02T01:51:17;35.33;;;18.73;;
47433;SDS011;33184;48.774;8.918;2023-03-02T01:56:43;31.27;;;18.20;;
47433;SDS011;33184;48.774;8.918;2023-03-02T02:02:05;29.03;;;17.77;;
47433;SDS011;33184;48.774;8.918;2023-03-02T02:07:30;36.63;;;20.37;;
47433;SDS011;33184;48.774;8.918;2023-03-02T02:12:51;34.47;;;18.97;;
47433;SDS011;33184;48.774;8.918;2023-03-02T02:18:12;40.00;;;21.60;;
47433;SDS011;33184;48.774;8.918;2023-03-02T02:23:35;35.60;;;19.90;;
47433;SDS011;33184;48.774;8.918;2023-03-02T02:29:05;32.00;;;18.87;;
47433;SDS011;33184;48.774;8.918;2023-03-02T02:35:07;34.47;;;18.97;;
47433;SDS011;33184;48.774;8.918;2023-03-02T02:40:52;31.97;;;18.10;;
47433;SDS011;33184;48.774;8.918;2023-03-02T02:46:19;36.80;;;19.37;;
47433;SDS011;33184;48.774;8.918;2023-03-02T02:51:40;36.90;;;19.70;;
47433;SDS011;33184;48.774;8.918;2023-03-02T02:57:01;35.43;;;18.80;;
47433;SDS011;33184;48.774;8.918;2023-03-02T03:02:25;35.67;;;20.00;;
47433;SDS011;33184;48.774;8.918;2023-03-02T03:07:49;34.42;;;21.48;;
47433;SDS011;33184;48.774;8.918;2023-03-02T03:13:10;35.20;;;19.50;;
47433;SDS011;33184;48.774;8.918;2023-03-02T03:18:32;34.63;;;19.43;;
47433;SDS011;33184;48.774;8.918;2023-03-02T03:23:52;33.00;;;20.47;;
47433;SDS011;33184;48.774;8.918;2023-03-02T03:29:14;37.67;;;19.80;;
47433;SDS011;33184;48.774;8.918;2023-03-02T03:34:36;39.30;;;22.03;;
47433;SDS011;33184;48.774;8.918;2023-03-02T03:40:09;35.07;;;19.00;;
47433;SDS011;33184;48.774;8.918;2023-03-02T03:45:33;36.63;;;20.13;;
47433;SDS011;33184;48.774;8.918;2023-03-02T03:50:54;35.07;;;20.93;;
47433;SDS011;33184;48.774;8.918;2023-03-02T03:56:16;41.13;;;21.13;;
47433;SDS011;33184;48.774;8.918;2023-03-02T04:01:41;34.73;;;20.00;;
47433;SDS011;33184;48.774;8.918;2023-03-02T04:07:04;37.10;;;21.63;;
47433;SDS011;33184;48.774;8.918;2023-03-02T04:12:25;33.10;;;19.53;;
47433;SDS011;33184;48.774;8.918;2023-03-02T04:17:48;35.03;;;19.90;;
47433;SDS011;33184;48.774;8.918;2023-03-02T04:23:11;36.00;;;19.03;;
47433;SDS011;33184;48.774;8.918;2023-03-02T04:28:32;38.80;;;20.10;;
47433;SDS011;33184;48.774;8.918;2023-03-02T04:33:52;33.33;;;19.83;;
47433;SDS011;33184;48.774;8.918;2023-03-02T04:39:14;35.43;;;20.43;;
47433;SDS011;33184;48.774;8.918;2023-03-02T04:44:38;36.50;;;19.97;;
47433;SDS011;33184;48.774;8.918;2023-03-02T04:49:59;33.03;;;19.87;;
47433;SDS011;33184;48.774;8.918;2023-03-02T04:55:20;40.43;;;19.63;;
47433;SDS011;33184;48.774;8.918;2023-03-02T05:00:42;39.63;;;19.67;;
47433;SDS011;33184;48.774;8.918;2023-03-02T05:06:03;37.10;;;21.40;;
47433;SDS011;33184;48.774;8.918;2023-03-02T05:11:24;39.80;;;20.27;;
47433;SDS011;33184;48.774;8.918;2023-03-02T05:16:45;38.27;;;22.00;;
47433;SDS011;33184;48.774;8.918;2023-03-02T05:22:05;39.43;;;20.57;;
47433;SDS011;33184;48.774;8.918;2023-03-02T05:27:26;38.80;;;20.43;;
47433;SDS011;33184;48.774;8.918;2023-03-02T05:32:47;36.67;;;21.17;;
47433;SDS011;33184;48.774;8.918;2023-03-02T05:38:08;41.63;;;22.00;;
47433;SDS011;33184;48.774;8.918;2023-03-02T05:43:30;43.33;;;22.77;;
47433;SDS011;33184;48.774;8.918;2023-03-02T05:48:50;44.73;;;22.23;;
47433;SDS011;33184;48.774;8.918;2023-03-02T05:54:11;42.77;;;22.77;;
47433;SDS011;33184;48.774;8.918;2023-03-02T05:59:32;41.80;;;23.30;;
47433;SDS011;33184;48.774;8.918;2023-03-02T06:04:52;42.67;;;23.63;;
47433;SDS011;33184;48.774;8.918;2023-03-02T06:10:14;46.47;;;22.83;;
47433;SDS011;33184;48.774;8.918;2023-03-02T06:15:35;43.67;;;23.43;;
47433;SDS011;33184;48.774;8.918;2023-03-02T06:20:56;44.57;;;23.60;;
47433;SDS011;33184;48.774;8.918;2023-03-02T06:26:17;42.60;;;24.17;;
47433;SDS011;33184;48.774;8.918;2023-03-02T06:31:37;41.40;;;23.03;;
47433;SDS011;33184;48.774;8.918;2023-03-02T06:36:58;46.30;;;23.83;;
47433;SDS011;33184;48.774;8.918;2023-03-02T06:42:18;47.03;;;25.17;;
47433;SDS011;33184;48.774;8.918;2023-03-02T06:47:39;45.73;;;25.37;;
47433;SDS011;33184;48.774;8.918;2023-03-02T06:53:00;40.97;;;22.47;;
47433;SDS011;33184;48.774;8.918;2023-03-02T06:58:20;40.33;;;23.10;;
47433;SDS011;33184;48.774;8.918;2023-03-02T07:03:41;43.70;;;24.13;;
47433;SDS011;33184;48.774;8.918;2023-03-02T07:09:03;44.07;;;24.80;;
47433;SDS011;33184;48.774;8.918;2023-03-02T07:14:24;42.53;;;23.27;;
47433;SDS011;33184;48.774;8.918;2023-03-02T07:19:44;45.27;;;24.20;;
47433;SDS011;33184;48.774;8.918;2023-03-02T07:25:05;43.57;;;23.63;;
47433;SDS011;33184;48.774;8.918;2023-03-02T07:30:26;37.53;;;21.57;;
47433;SDS011;33184;48.774;8.918;2023-03-02T07:35:47;41.40;;;21.20;;
47433;SDS011;33184;48.774;8.918;2023-03-02T07:41:08;33.53;;;17.87;;
47433;SDS011;33184;48.774;8.918;2023-03-02T07:46:29;37.50;;;20.47;;
47433;SDS011;33184;48.774;8.918;2023-03-02T07:51:49;39.07;;;21.60;;
47433;SDS011;33184;48.774;8.918;2023-03-02T07:57:10;41.30;;;20.37;;
47433;SDS011;33184;48.774;8.918;2023-03-02T08:02:32;36.90;;;20.30;;
47433;SDS011;33184;48.774;8.918;2023-03-02T08:07:53;41.40;;;19.80;;
47433;SDS011;33184;48.774;8.918;2023-03-02T08:13:14;35.90;;;20.03;;
47433;SDS011;33184;48.774;8.918;2023-03-02T08:18:34;33.03;;;17.30;;
47433;SDS011;33184;48.774;8.918;2023-03-02T08:23:56;37.07;;;19.90;;
47433;SDS011;33184;48.774;8.918;2023-03-02T08:29:17;37.53;;;19.23;;
47433;SDS011;33184;48.774;8.918;2023-03-02T08:34:38;36.30;;;20.37;;
47433;SDS011;33184;48.774;8.918;2023-03-02T08:39:58;38.77;;;20.47;;
47433;SDS011;33184;48.774;8.918;2023-03-02T08:45:19;32.57;;;19.07;;
47433;SDS011;33184;48.774;8.918;2023-03-02T08:50:39;41.43;;;20.37;;
47433;SDS011;33184;48.774;8.918;2023-03-02T08:56:00;40.67;;;20.73;;
47433;SDS011;33184;48.774;8.918;2023-03-02T09:01:28;36.37;;;19.27;;
47433;SDS011;33184;48.774;8.918;2023-03-02T09:06:50;32.40;;;17.77;;
47433;SDS011;33184;48.774;8.918;2023-03-02T09:12:11;36.13;;;18.40;;
47433;SDS011;33184;48.774;8.918;2023-03-02T09:17:31;38.37;;;21.33;;
47433;SDS011;33184;48.774;8.918;2023-03-02T09:22:52;35.53;;;19.00;;
47433;SDS011;33184;48.774;8.918;2023-03-02T09:28:13;38.27;;;19.03;;
47433;SDS011;33184;48.774;8.918;2023-03-02T09:33:34;33.57;;;21.30;;
47433;SDS011;33184;48.774;8.918;2023-03-02T09:38:55;33.20;;;17.80;;
47433;SDS011;33184;48.774;8.918;2023-03-02T09:45:20;37.97;;;19.47;;
47433;SDS011;33184;48.774;8.918;2023-03-02T09:50:25;33.80;;;17.90;;
47433;SDS011;33184;48.774;8.918;2023-03-02T09:55:54;31.73;;;17.33;;
47433;SDS011;33184;48.774;8.918;2023-03-02T10:01:21;30.37;;;17.03;;
47433;SDS011;33184;48.774;8.918;2023-03-02T10:06:54;33.57;;;17.27;;
47433;SDS011;33184;48.774;8.918;2023-03-02T10:24:15;31.97;;;17.50;;
47433;SDS011;33184;48.774;8.918;2023-03-02T10:29:50;34.83;;;17.90;;
47433;SDS011;33184;48.774;8.918;2023-03-02T10:35:24;35.90;;;19.40;;
47433;SDS011;33184;48.774;8.918;2023-03-02T10:46:19;31.33;;;18.67;;
47433;SDS011;33184;48.774;8.918;2023-03-02T10:51:39;34.33;;;19.20;;
47433;SDS011;33184;48.774;8.918;2023-03-02T10:57:02;30.53;;;17.83;;
47433;SDS011;33184;48.774;8.918;2023-03-02T11:02:25;31.10;;;18.33;;
47433;SDS011;33184;48.774;8.918;2023-03-02T11:07:54;30.00;;;17.37;;
47433;SDS011;33184;48.774;8.918;2023-03-02T11:13:17;34.53;;;17.90;;
47433;SDS011;33184;48.774;8.918;2023-03-02T11:18:41;33.80;;;18.60;;
47433;SDS011;33184;48.774;8.918;2023-03-02T11:29:44;32.37;;;17.77;;
47433;SDS011;33184;48.774;8.918;2023-03-02T11:35:12;31.23;;;18.10;;
47433;SDS011;33184;48.774;8.918;2023-03-02T11:40:41;32.13;;;19.67;;
47433;SDS011;33184;48.774;8.918;2023-03-02T11:46:06;26.67;;;16.47;;
47433;SDS011;33184;48.774;8.918;2023-03-02T11:51:37;30.70;;;18.53;;
47433;SDS011;33184;48.774;8.918;2023-03-02T11:57:01;38.45;;;19.85;;
47433;SDS011;33184;48.774;8.918;2023-03-02T12:02:23;30.43;;;17.80;;
47433;SDS011;33184;48.774;8.918;2023-03-02T12:07:54;26.97;;;17.30;;
47433;SDS011;33184;48.774;8.918;2023-03-02T12:13:17;32.37;;;20.63;;
47433;SDS011;33184;48.774;8.918;2023-03-02T12:18:42;32.53;;;19.73;;
47433;SDS011;33184;48.774;8.918;2023-03-02T12:24:05;27.35;;;18.83;;
47433;SDS011;33184;48.774;8.918;2023-03-02T12:57:20;28.33;;;17.67;;
47433;SDS011;33184;48.774;8.918;2023-03-02T13:02:44;30.73;;;18.30;;
47433;SDS011;33184;48.774;8.918;2023-03-02T13:08:15;27.13;;;18.10;;
47433;SDS011;33184;48.774;8.918;2023-03-02T13:13:43;28.57;;;19.60;;
47433;SDS011;33184;48.774;8.918;2023-03-02T13:19:08;25.67;;;17.97;;
47433;SDS011;33184;48.774;8.918;2023-03-02T13:24:43;26.97;;;17.53;;
47433;SDS011;33184;48.774;8.918;2023-03-02T13:30:11;33.00;;;20.10;;
47433;SDS011;33184;48.774;8.918;2023-03-02T13:35:43;29.00;;;21.20;;
47433;SDS011;33184;48.774;8.918;2023-03-02T13:41:05;31.20;;;19.27;;
47433;SDS011;33184;48.774;8.918;2023-03-02T13:46:27;27.60;;;19.43;;
47433;SDS011;33184;48.774;8.918;2023-03-02T13:51:55;28.63;;;19.07;;
47433;SDS011;33184;48.774;8.918;2023-03-02T13:57:23;31.13;;;20.43;;
47433;SDS011;33184;48.774;8.918;2023-03-02T14:02:50;30.27;;;21.20;;
47433;SDS011;33184;48.774;8.918;2023-03-02T14:08:10;27.03;;;19.03;;
47433;SDS011;33184;48.774;8.918;2023-03-02T14:18:57;28.43;;;18.37;;
47433;SDS011;33184;48.774;8.918;2023-03-02T14:24:17;26.90;;;19.77;;
47433;SDS011;33184;48.774;8.918;2023-03-02T14:29:38;30.67;;;19.87;;
47433;SDS011;33184;48.774;8.918;2023-03-02T14:35:00;27.90;;;17.70;;
47433;SDS011;33184;48.774;8.918;2023-03-02T14:40:25;28.53;;;20.10;;
47433;SDS011;33184;48.774;8.918;2023-03-02T14:45:46;31.07;;;22.73;;
47433;SDS011;33184;48.774;8.918;2023-03-02T14:51:12;31.63;;;20.63;;
47433;SDS011;33184;48.774;8.918;2023-03-02T14:56:38;28.07;;;18.63;;
47433;SDS011;33184;48.774;8.918;2023-03-02T15:01:59;34.03;;;22.40;;
47433;SDS011;33184;48.774;8.918;2023-03-02T15:07:20;28.93;;;18.27;;
47433;SDS011;33184;48.774;8.918;2023-03-02T15:12:41;31.90;;;20.00;;
47433;SDS011;33184;48.774;8.918;2023-03-02T15:18:01;36.37;;;19.57;;
47433;SDS011;33184;48.774;8.918;2023-03-02T15:23:23;27.40;;;18.00;;
47433;SDS011;33184;48.774;8.918;2023-03-02T15:28:44;28.57;;;18.37;;
47433;SDS011;33184;48.774;8.918;2023-03-02T15:34:08;28.90;;;18.60;;
47433;SDS011;33184;48.774;8.918;2023-03-02T15:39:29;33.80;;;19.80;;
47433;SDS011;33184;48.774;8.918;2023-03-02T15:44:49;26.67;;;19.93;;
47433;SDS011;33184;48.774;8.918;2023-03-02T15:50:10;26.97;;;18.50;;
47433;SDS011;33184;48.774;8.918;2023-03-02T15:55:31;28.13;;;19.03;;
47433;SDS011;33184;48.774;8.918;2023-03-02T16:00:52;28.83;;;19.63;;
47433;SDS011;33184;48.774;8.918;2023-03-02T16:06:12;33.10;;;19.87;;
47433;SDS011;33184;48.774;8.918;2023-03-02T16:11:35;29.20;;;18.80;;
47433;SDS011;33184;48.774;8.918;2023-03-02T16:16:55;32.83;;;20.77;;
47433;SDS011;33184;48.774;8.918;2023-03-02T16:22:16;32.57;;;20.30;;
47433;SDS011;33184;48.774;8.918;2023-03-02T16:27:37;32.40;;;20.33;;
47433;SDS011;33184;48.774;8.918;2023-03-02T16:33:02;29.00;;;20.60;;
47433;SDS011;33184;48.774;8.918;2023-03-02T16:38:24;29.57;;;19.83;;
47433;SDS011;33184;48.774;8.918;2023-03-02T16:43:51;26.97;;;17.93;;
47433;SDS011;33184;48.774;8.918;2023-03-02T16:49:13;27.90;;;18.37;;
47433;SDS011;33184;48.774;8.918;2023-03-02T16:54:34;23.03;;;16.00;;
47433;SDS011;33184;48.774;8.918;2023-03-02T16:59:54;26.97;;;17.70;;
47433;SDS011;33184;48.774;8.918;2023-03-02T17:05:16;26.70;;;18.60;;
47433;SDS011;33184;48.774;8.918;2023-03-02T17:10:38;41.23;;;21.60;;
47433;SDS011;33184;48.774;8.918;2023-03-02T17:16:00;35.83;;;21.73;;
47433;SDS011;33184;48.774;8.918;2023-03-02T17:21:21;28.13;;;18.70;;
47433;SDS011;33184;48.774;8.918;2023-03-02T17:26:43;36.47;;;18.67;;
47433;SDS011;33184;48.774;8.918;2023-03-02T17:32:05;27.03;;;17.03;;
47433;SDS011;33184;48.774;8.918;2023-03-02T17:37:26;28.27;;;18.17;;
47433;SDS011;33184;48.774;8.918;2023-03-02T17:42:49;30.20;;;18.47;;
47433;SDS011;33184;48.774;8.918;2023-03-02T17:48:09;30.97;;;18.20;;
47433;SDS011;33184;48.774;8.918;2023-03-02T17:53:30;32.63;;;18.70;;
47433;SDS011;33184;48.774;8.918;2023-03-02T17:58:53;27.83;;;18.63;;
47433;SDS011;33184;48.774;8.918;2023-03-02T18:09:36;30.57;;;17.43;;
47433;SDS011;33184;48.774;8.918;2023-03-02T18:14:56;28.93;;;18.13;;
47433;SDS011;33184;48.774;8.918;2023-03-02T18:20:17;31.43;;;17.77;;
47433;SDS011;33184;48.774;8.918;2023-03-02T18:25:38;33.80;;;20.00;;
47433;SDS011;33184;48.774;8.918;2023-03-02T18:30:58;34.13;;;19.43;;
47433;SDS011;33184;48.774;8.918;2023-03-02T18:36:19;32.63;;;18.83;;
47433;SDS011;33184;48.774;8.918;2023-03-02T18:41:39;33.77;;;19.40;;
47433;SDS011;33184;48.774;8.918;2023-03-02T18:47:01;31.73;;;18.60;;
47433;SDS011;33184;48.774;8.918;2023-03-02T18:52:21;32.30;;;19.43;;
47433;SDS011;33184;48.774;8.918;2023-03-02T18:57:42;35.90;;;19.87;;
47433;SDS011;33184;48.774;8.918;2023-03-02T19:03:03;29.60;;;18.57;;
47433;SDS011;33184;48.774;8.918;2023-03-02T19:08:24;35.17;;;22.23;;
47433;SDS011;33184;48.774;8.918;2023-03-02T19:13:45;31.73;;;19.93;;
47433;SDS011;33184;48.774;8.918;2023-03-02T19:19:06;33.33;;;21.40;;
47433;SDS011;33184;48.774;8.918;2023-03-02T19:24:26;32.57;;;20.07;;
47433;SDS011;33184;48.774;8.918;2023-03-02T19:29:47;37.43;;;21.03;;
47433;SDS011;33184;48.774;8.918;2023-03-02T19:35:09;34.97;;;20.83;;
47433;SDS011;33184;48.774;8.918;2023-03-02T19:40:34;34.20;;;19.90;;
47433;SDS011;33184;48.774;8.918;2023-03-02T19:45:55;33.53;;;20.40;;
47433;SDS011;33184;48.774;8.918;2023-03-02T19:51:16;37.70;;;21.47;;
47433;SDS011;33184;48.774;8.918;2023-03-02T19:56:36;35.90;;;22.47;;
47433;SDS011;33184;48.774;8.918;2023-03-02T20:01:59;48.77;;;30.27;;
47433;SDS011;33184;48.774;8.918;2023-03-02T20:07:20;55.17;;;28.87;;
47433;SDS011;33184;48.774;8.918;2023-03-02T20:12:41;39.70;;;23.90;;
47433;SDS011;33184;48.774;8.918;2023-03-02T20:18:02;46.57;;;25.53;;
47433;SDS011;33184;48.774;8.918;2023-03-02T20:23:24;37.37;;;23.43;;
47433;SDS011;33184;48.774;8.918;2023-03-02T20:28:45;35.90;;;21.37;;
47433;SDS011;33184;48.774;8.918;2023-03-02T20:34:08;33.67;;;22.90;;
47433;SDS011;33184;48.774;8.918;2023-03-02T20:39:32;33.95;;;21.20;;
47433;SDS011;33184;48.774;8.918;2023-03-02T20:44:54;40.40;;;23.10;;
47433;SDS011;33184;48.774;8.918;2023-03-02T20:50:17;40.33;;;23.10;;
47433;SDS011;33184;48.774;8.918;2023-03-02T20:55:40;37.30;;;21.65;;
47433;SDS011;33184;48.774;8.918;2023-03-02T21:01:01;40.43;;;22.43;;
47433;SDS011;33184;48.774;8.918;2023-03-02T21:06:21;38.93;;;23.97;;
47433;SDS011;33184;48.774;8.918;2023-03-02T21:11:42;34.70;;;21.93;;
47433;SDS011;33184;48.774;8.918;2023-03-02T21:17:04;41.77;;;24.43;;
47433;SDS011;33184;48.774;8.918;2023-03-02T21:22:25;39.13;;;25.13;;
47433;SDS011;33184;48.774;8.918;2023-03-02T21:27:46;42.17;;;25.47;;
47433;SDS011;33184;48.774;8.918;2023-03-02T21:33:06;37.30;;;22.57;;
47433;SDS011;33184;48.774;8.918;2023-03-02T21:38:27;42.63;;;24.87;;
47433;SDS011;33184;48.774;8.918;2023-03-02T21:43:48;40.77;;;23.77;;
47433;SDS011;33184;48.774;8.918;2023-03-02T21:49:10;42.93;;;25.60;;
47433;SDS011;33184;48.774;8.918;2023-03-02T21:54:33;43.72;;;24.73;;
47433;SDS011;33184;48.774;8.918;2023-03-02T21:59:54;40.07;;;23.93;;
47433;SDS011;33184;48.774;8.918;2023-03-02T22:05:14;39.27;;;23.17;;
47433;SDS011;33184;48.774;8.918;2023-03-02T22:10:39;44.63;;;25.07;;
47433;SDS011;33184;48.774;8.918;2023-03-02T22:16:10;46.50;;;24.23;;
47433;SDS011;33184;48.774;8.918;2023-03-02T22:21:34;40.73;;;24.63;;
47433;SDS011;33184;48.774;8.918;2023-03-02T22:26:57;43.70;;;23.53;;
47433;SDS011;33184;48.774;8.918;2023-03-02T22:32:23;49.50;;;25.10;;
47433;SDS011;33184;48.774;8.918;2023-03-02T22:37:46;43.33;;;24.13;;
47433;SDS011;33184;48.774;8.918;2023-03-02T22:43:10;40.53;;;23.63;;
47433;SDS011;33184;48.774;8.918;2023-03-02T22:48:34;49.60;;;25.93;;
47433;SDS011;33184;48.774;8.918;2023-03-02T22:53:57;45.23;;;23.73;;
47433;SDS011;33184;48.774;8.918;2023-03-02T22:59:20;42.70;;;23.53;;
47433;SDS011;33184;48.774;8.918;2023-03-02T23:04:41;40.43;;;22.70;;
47433;SDS011;33184;48.774;8.918;2023-03-02T23:10:03;41.60;;;24.73;;
47433;SDS011;33184;48.774;8.918;2023-03-02T23:15:24;43.03;;;24.33;;
47433;SDS011;33184;48.774;8.918;2023-03-02T23:20:44;42.07;;;24.43;;
47433;SDS011;33184;48.774;8.918;2023-03-02T23:26:05;39.90;;;23.70;;
47433;SDS011;33184;48.774;8.918;2023-03-02T23:31:26;38.73;;;22.50;;
47433;SDS011;33184;48.774;8.918;2023-03-02T23:36:47;38.20;;;23.33;;
47433;SDS011;33184;48.774;8.918;2023-03-02T23:42:07;41.27;;;23.50;;
47433;SDS011;33184;48.774;8.918;2023-03-02T23:47:28;39.43;;;22.87;;
47433;SDS011;33184;48.774;8.918;2023-03-02T23:52:48;45.40;;;24.30;;
47433;SDS011;33184;48.774;8.918;2023-03-02T23:58:09;38.93;;;23.93;;
